Niagara Falls, NY (14301)

5:41 PM EDT on August 25, 2016 (GMT -0400)
Monroe Sub Niagara Falls ON | | Change Station

Elev 670 ft 43.11 °N, 79.11 °W | Updated 9 seconds ago

Overcast
Overcast
83.4 °F
Feels Like 90 °F
N
3.8
Wind Variable Wind from NW
Gusts 6.0 mph

Today
High -- | Low -- °F
--% Chance of Precip.
Yesterday
High -- | Low -- °F
Precip. -- in
Pressure 29.91 in
Visibility 10.0 miles
Clouds Few 3600 ft
Scattered Clouds 12000 ft
Mostly Cloudy 18000 ft
Overcast 30000 ft
Heat Index 90 °F
Dew Point 74 °F
Humidity 72%
Rainfall 0.04 in
Snow Depth Not available.
6:33 AM 8:01 PM
Last Quarter, 42% visible
METAR KIAG 252053Z 22012KT 10SM FEW036 SCT120 BKN180 OVC300 29/21 A2993 RMK AO2 SLP129 OCNL LTGCCCG DSNT NW CB DSNT NW MOV NE T02890206 55005
Pressure 29.91 in
Visibility 10.0 miles
Clouds Few 3600 ft
Scattered Clouds 12000 ft
Mostly Cloudy 18000 ft
Overcast 30000 ft
Heat Index 90 °F
Dew Point 74 °F
Humidity 72%
Rainfall 0.04 in
Snow Depth Not available.
6:33 AM 8:01 PM
Last Quarter, 42% visible
METAR KIAG 252053Z 22012KT 10SM FEW036 SCT120 BKN180 OVC300 29/21 A2993 RMK AO2 SLP129 OCNL LTGCCCG DSNT NW CB DSNT NW MOV NE T02890206 55005
A tropical disturbance pushing toward the Bahamas, is expected to develop into a tropical depression or storm, and will likely target Florida and the Gulf Coast this weekend into next week.

Right now, the disturbance remains a broad area of low pressure pushing through the Dominican Republic and Haiti, headed toward the southeast Bahamas. Rainfall totals over 3 inches (with locally higher amounts) are expected in HispaƱiola, particularly over elevated terrain.

10-Day Weather Forecast

Almanac

Astronomy

Aug. 25, 2016 Rise Set
Actual Time
Civil Twilight
Nautical Twilight
Astronomical Twilight
Moon
Length of Visible Light
Length of Day
Tomorrow will be .
, % of the Moon is Illuminated

Today's Extremes

State Highs State Lows

Community

WunderPhotos

Upload Photos

1,934,947 photos uploaded!

WunderBlog® & News

Nearby

Air Quality

  Air Quality AQ Index Pollutant
Not available.

Snow Depth

Station Depth Elevation

Earthquake Activity

City Distance Mag. Time & Date
Minimum magnitude displayed is 2.5.

Coastal Water Temperatures

Place Temperature

Stations

Nearby Weather Stations

Station Location Temp. Windchill Dew Point Humidity Wind Precip. Elev Updated Type
                   

Watches & Warnings

There are currently no watches in effect.